createdAt,value
2022-08-10T00:00:06.608Z,56.19
2022-08-10T00:00:38.206Z,55.96
2022-08-10T00:01:09.813Z,56.17
2022-08-10T00:01:41.578Z,56.24
2022-08-10T00:02:13.202Z,56.54
2022-08-10T00:02:44.777Z,56.33
2022-08-10T00:03:16.343Z,55.06
2022-08-10T00:03:48.045Z,54.66
2022-08-10T00:04:24.597Z,56.34
2022-08-10T00:04:56.309Z,55.94
2022-08-10T00:05:28.237Z,55.87
2022-08-10T00:06:15.590Z,55.68
2022-08-10T00:06:47.151Z,54.65
2022-08-10T00:07:18.708Z,54.37
2022-08-10T00:07:51.418Z,54.27
2022-08-10T00:08:26.563Z,54.23
2022-08-10T00:08:58.190Z,54.81
2022-08-10T00:09:29.783Z,54.24
2022-08-10T00:10:01.345Z,54.59
2022-08-10T00:10:32.941Z,54.64
2022-08-10T00:11:04.618Z,55.01
2022-08-10T00:11:47.245Z,54.60
2022-08-10T00:12:19.747Z,54.29
2022-08-10T00:12:54.317Z,53.87
2022-08-10T00:13:26.770Z,53.75
2022-08-10T00:13:58.505Z,54.09
2022-08-10T00:14:32.407Z,54.11
2022-08-10T00:15:05.597Z,53.85
2022-08-10T00:15:52.399Z,53.77
2022-08-10T00:16:26.130Z,54.11
2022-08-10T00:16:57.740Z,53.97
2022-08-10T00:17:29.284Z,54.01
2022-08-10T00:18:00.957Z,54.07
2022-08-10T00:18:35.668Z,53.99
2022-08-10T00:19:07.938Z,53.92
2022-08-10T00:20:02.977Z,53.63
2022-08-10T00:20:32.948Z,53.51
2022-08-10T00:21:09.382Z,53.40
2022-08-10T00:21:41.104Z,53.55
2022-08-10T00:22:12.663Z,53.88
2022-08-10T00:22:52.992Z,53.81
2022-08-10T00:23:29.596Z,53.81
2022-08-10T00:24:01.193Z,53.57
2022-08-10T00:24:32.784Z,53.76
2022-08-10T00:25:05.823Z,53.73
2022-08-10T00:25:37.514Z,53.43
2022-08-10T00:26:09.696Z,53.35
2022-08-10T00:27:52.686Z,53.62
2022-08-10T00:27:53.034Z,53.25
2022-08-10T00:28:25.823Z,53.42
2022-08-10T00:28:57.379Z,53.57
2022-08-10T00:29:28.968Z,53.56
2022-08-10T00:30:00.832Z,53.74
2022-08-10T00:30:32.754Z,53.55
2022-08-10T00:31:04.652Z,53.46
2022-08-10T00:31:55.920Z,53.74
2022-08-10T00:32:27.782Z,53.44
2022-08-10T00:32:59.366Z,53.41
2022-08-10T00:33:30.917Z,53.48
2022-08-10T00:34:02.808Z,53.60
2022-08-10T00:34:34.996Z,53.55
2022-08-10T00:35:07.047Z,53.65
2022-08-10T00:35:38.602Z,53.52
2022-08-10T00:36:10.340Z,53.48
2022-08-10T00:36:41.889Z,53.71
2022-08-10T00:37:14.724Z,53.57
2022-08-10T00:37:56.489Z,53.60
2022-08-10T00:38:29.839Z,53.68
2022-08-10T00:39:01.432Z,53.91
2022-08-10T00:39:36.313Z,53.87
2022-08-10T00:40:11.802Z,53.85
2022-08-10T00:40:43.364Z,53.96
2022-08-10T00:41:14.908Z,54.22
2022-08-10T00:41:46.474Z,54.51
2022-08-10T00:42:38.077Z,54.58
2022-08-10T00:43:09.846Z,55.16
2022-08-10T00:43:41.431Z,54.29
2022-08-10T00:44:13.021Z,54.94
2022-08-10T00:44:50.055Z,54.87
2022-08-10T00:45:21.680Z,54.95
2022-08-10T00:45:58.877Z,54.97
2022-08-10T00:46:31.876Z,54.89
2022-08-10T00:47:03.700Z,54.88
2022-08-10T00:47:37.048Z,54.87
2022-08-10T00:48:09.266Z,55.20
2022-08-10T00:48:41.045Z,55.44
2022-08-10T00:49:13.722Z,55.24
2022-08-10T00:49:45.561Z,55.28
2022-08-10T00:50:18.966Z,54.96
2022-08-10T00:50:50.745Z,54.51
2022-08-10T00:51:22.401Z,54.82
2022-08-10T00:52:16.642Z,55.01
2022-08-10T00:52:48.745Z,55.15
2022-08-10T00:53:20.322Z,55.41
2022-08-10T00:53:51.905Z,55.34
2022-08-10T00:54:24.431Z,55.43
2022-08-10T00:54:57.889Z,55.47
2022-08-10T00:55:30.472Z,55.40
2022-08-10T00:57:12.278Z,55.51
2022-08-10T00:57:16.402Z,55.80
2022-08-10T00:57:46.876Z,55.88
2022-08-10T00:58:27.778Z,55.52
2022-08-10T00:58:59.610Z,55.44
2022-08-10T00:59:32.672Z,55.21
2022-08-10T01:00:06.688Z,55.38
2022-08-10T01:00:38.243Z,55.42
2022-08-10T01:01:11.103Z,55.65
2022-08-10T01:02:08.440Z,55.98
2022-08-10T01:02:42.990Z,56.27
2022-08-10T01:03:16.829Z,56.70
2022-08-10T01:04:58.020Z,56.85
2022-08-10T01:05:04.015Z,57.12
2022-08-10T01:05:51.331Z,57.35
2022-08-10T01:06:23.369Z,57.61
2022-08-10T01:07:14.760Z,57.38
2022-08-10T01:08:13.666Z,57.37
2022-08-10T01:08:54.418Z,57.19
2022-08-10T01:09:59.573Z,57.14
2022-08-10T01:10:51.851Z,57.40
2022-08-10T01:12:43.443Z,58.01
2022-08-10T01:12:47.586Z,57.62
2022-08-10T01:13:27.914Z,57.48
2022-08-10T01:13:59.476Z,57.39
2022-08-10T01:14:46.219Z,57.39
2022-08-10T01:15:30.063Z,57.35
2022-08-10T01:16:28.008Z,56.81
2022-08-10T01:17:50.474Z,56.42
2022-08-10T01:18:37.533Z,56.37
2022-08-10T01:19:27.744Z,56.88
2022-08-10T01:20:30.234Z,57.08
2022-08-10T01:21:17.199Z,57.11
2022-08-10T01:22:23.934Z,58.43
2022-08-10T01:23:30.404Z,57.72
2022-08-10T01:24:20.130Z,58.27
2022-08-10T01:25:33.920Z,58.84
2022-08-10T01:26:53.785Z,60.03
2022-08-10T01:27:29.070Z,59.82
2022-08-10T01:28:16.127Z,59.59
2022-08-10T01:28:47.652Z,59.73
2022-08-10T01:29:55.226Z,59.62
2022-08-10T01:30:29.858Z,59.54
2022-08-10T01:31:02.971Z,59.32
2022-08-10T01:31:41.469Z,59.37
2022-08-10T01:32:16.968Z,59.36
2022-08-10T01:33:05.089Z,59.39
2022-08-10T01:34:01.951Z,59.97
2022-08-10T01:34:41.167Z,60.12
2022-08-10T01:35:18.316Z,60.12
2022-08-10T01:36:00.641Z,60.77
2022-08-10T01:36:41.642Z,60.57
2022-08-10T01:37:17.053Z,60.60
2022-08-10T01:38:02.764Z,60.57
2022-08-10T01:38:39.261Z,60.35
2022-08-10T01:39:16.237Z,60.07
2022-08-10T01:39:56.225Z,60.16
2022-08-10T01:40:30.996Z,60.15
2022-08-10T01:41:09.795Z,60.11
2022-08-10T01:41:46.754Z,60.32
2022-08-10T01:42:21.848Z,60.83
2022-08-10T01:42:59.641Z,60.62
2022-08-10T01:43:46.525Z,59.73
2022-08-10T01:44:40.261Z,59.41
2022-08-10T01:45:14.271Z,59.52
2022-08-10T01:45:53.452Z,59.63
2022-08-10T01:46:26.917Z,59.62
2022-08-10T01:47:24.014Z,59.34
2022-08-10T01:48:16.987Z,59.60
2022-08-10T01:48:51.945Z,60.11
2022-08-10T01:49:24.832Z,60.25
2022-08-10T01:50:04.223Z,60.00
2022-08-10T01:50:53.271Z,60.45
2022-08-10T01:51:35.919Z,59.64
2022-08-10T01:52:07.774Z,59.98
2022-08-10T01:52:43.131Z,59.90
2022-08-10T01:53:22.883Z,59.99
2022-08-10T01:54:04.066Z,60.08
2022-08-10T01:54:35.862Z,60.52
2022-08-10T01:55:09.801Z,60.40
2022-08-10T01:55:42.460Z,60.07
2022-08-10T01:56:16.688Z,59.87
2022-08-10T01:56:52.290Z,59.97
2022-08-10T01:57:27.528Z,60.20
2022-08-10T01:58:02.590Z,60.16
2022-08-10T01:58:36.785Z,60.07
2022-08-10T01:59:32.721Z,59.92
2022-08-10T02:00:05.328Z,60.02
2022-08-10T02:01:20.124Z,60.21
2022-08-10T02:01:58.963Z,59.83
2022-08-10T02:02:32.386Z,59.88
2022-08-10T02:03:07.706Z,59.73
2022-08-10T02:04:04.212Z,60.00
2022-08-10T02:04:36.151Z,60.02
2022-08-10T02:05:09.131Z,60.11
2022-08-10T02:05:44.448Z,60.06
2022-08-10T02:06:18.941Z,60.28
2022-08-10T02:06:53.258Z,60.38
2022-08-10T02:07:27.730Z,60.44
2022-08-10T02:08:01.254Z,60.70
2022-08-10T02:08:34.456Z,60.49
2022-08-10T02:09:15.501Z,60.56
2022-08-10T02:09:51.292Z,60.48
2022-08-10T02:10:25.970Z,60.63
2022-08-10T02:10:59.447Z,61.18
2022-08-10T02:12:06.376Z,60.87
2022-08-10T02:12:26.556Z,61.05
2022-08-10T02:12:58.900Z,61.27
2022-08-10T02:13:32.281Z,61.23
2022-08-10T02:14:04.893Z,60.74
2022-08-10T02:14:41.957Z,60.54
2022-08-10T02:15:19.298Z,60.50
2022-08-10T02:16:01.146Z,60.48
2022-08-10T02:16:37.890Z,60.63
2022-08-10T02:17:57.545Z,60.27
2022-08-10T02:18:11.425Z,60.15
2022-08-10T02:18:44.121Z,60.23
2022-08-10T02:19:18.309Z,60.57
2022-08-10T02:19:51.549Z,60.51
2022-08-10T02:20:26.379Z,60.70
2022-08-10T02:21:08.085Z,60.62
2022-08-10T02:21:42.431Z,60.83
2022-08-10T02:22:46.020Z,61.09
2022-08-10T02:23:32.181Z,60.94
2022-08-10T02:24:06.180Z,61.02
2022-08-10T02:24:40.783Z,61.43
2022-08-10T02:25:40.103Z,61.46
2022-08-10T02:26:08.786Z,61.61
2022-08-10T02:26:43.526Z,62.11
2022-08-10T02:27:15.574Z,61.65
2022-08-10T02:27:49.272Z,61.50
2022-08-10T02:28:27.427Z,62.06
2022-08-10T02:29:02.913Z,61.90
2022-08-10T02:29:36.143Z,61.75
2022-08-10T02:30:08.895Z,61.90
2022-08-10T02:30:41.533Z,62.23
2022-08-10T02:31:22.293Z,62.20
2022-08-10T02:31:56.406Z,62.00
2022-08-10T02:32:38.635Z,62.00
2022-08-10T02:33:10.994Z,62.00
2022-08-10T02:33:57.233Z,61.81
2022-08-10T02:34:30.130Z,61.96
2022-08-10T02:35:06.049Z,61.92
2022-08-10T02:35:53.876Z,62.37
2022-08-10T02:36:31.185Z,62.84
2022-08-10T02:37:10.820Z,62.58
2022-08-10T02:37:46.302Z,62.42
2022-08-10T02:38:23.140Z,62.60
2022-08-10T02:39:17.053Z,62.50
2022-08-10T02:39:48.676Z,62.03
2022-08-10T02:45:01.995Z,61.69
2022-08-10T02:45:12.665Z,62.06
2022-08-10T02:45:20.986Z,62.06
2022-08-10T02:45:21.463Z,61.97
2022-08-10T02:45:27.646Z,62.45
2022-08-10T02:45:44.162Z,62.08
2022-08-10T02:46:26.357Z,62.02
2022-08-10T02:47:11.409Z,62.17
2022-08-10T02:47:52.341Z,62.68
2022-08-10T02:48:40.055Z,62.33
2022-08-10T02:49:22.869Z,62.27
2022-08-10T02:50:09.865Z,62.22
2022-08-10T02:50:51.049Z,62.16
2022-08-10T02:52:06.639Z,62.17
2022-08-10T02:52:27.210Z,62.14
2022-08-10T02:53:06.863Z,62.08
2022-08-10T02:53:55.099Z,62.33
2022-08-10T02:54:33.920Z,62.76
2022-08-10T02:55:34.758Z,62.55
2022-08-10T02:56:26.612Z,62.56
2022-08-10T02:57:08.331Z,62.93
2022-08-10T02:58:17.380Z,62.80
2022-08-10T02:58:45.812Z,62.81
2022-08-10T02:59:49.247Z,63.04
2022-08-10T03:00:21.322Z,63.22
2022-08-10T03:00:56.733Z,62.96
2022-08-10T03:01:33.841Z,62.75
2022-08-10T03:02:07.102Z,62.98
2022-08-10T03:02:41.962Z,62.86
2022-08-10T03:03:21.258Z,63.16
2022-08-10T03:04:01.018Z,63.19
2022-08-10T03:04:55.418Z,63.07
2022-08-10T03:05:30.077Z,63.08
2022-08-10T03:06:08.473Z,63.00
2022-08-10T03:06:45.184Z,63.02
2022-08-10T03:07:43.302Z,63.06
2022-08-10T03:08:14.510Z,63.53
2022-08-10T03:08:48.158Z,63.46
2022-08-10T03:09:21.750Z,63.39
2022-08-10T03:09:54.885Z,63.70
2022-08-10T03:10:32.290Z,63.63
2022-08-10T03:11:06.725Z,63.63
2022-08-10T03:12:34.944Z,63.66
2022-08-10T03:12:36.289Z,63.95
2022-08-10T03:13:12.177Z,63.58
2022-08-10T03:13:47.872Z,63.49
2022-08-10T03:14:32.822Z,63.37
2022-08-10T03:15:05.109Z,63.54
2022-08-10T03:15:38.797Z,63.93
2022-08-10T03:16:11.693Z,64.04
2022-08-10T03:16:45.720Z,63.59
2022-08-10T03:17:18.046Z,63.58
2022-08-10T03:17:57.652Z,63.36
2022-08-10T03:18:31.915Z,63.32
2022-08-10T03:19:06.447Z,63.80
2022-08-10T03:20:34.314Z,63.46
2022-08-10T03:20:54.040Z,63.00
2022-08-10T03:21:27.787Z,63.01
2022-08-10T03:22:00.306Z,63.02
2022-08-10T03:22:32.798Z,62.78
2022-08-10T03:23:09.764Z,62.50
2022-08-10T03:23:42.883Z,62.27
2022-08-10T03:24:32.844Z,62.23
2022-08-10T03:25:05.657Z,62.61
2022-08-10T03:25:38.122Z,63.05
2022-08-10T03:26:11.884Z,62.97
2022-08-10T03:26:44.181Z,63.03
2022-08-10T03:27:17.578Z,62.92
2022-08-10T03:27:50.135Z,62.94
2022-08-10T03:28:27.655Z,62.87
2022-08-10T03:29:03.614Z,63.10
2022-08-10T03:30:29.385Z,63.09
2022-08-10T03:30:33.326Z,62.45
2022-08-10T03:31:06.002Z,62.49
2022-08-10T03:31:40.111Z,62.49
2022-08-10T03:32:12.367Z,62.18
2022-08-10T03:32:45.086Z,61.93
2022-08-10T03:33:17.813Z,62.46
2022-08-10T03:33:50.302Z,61.74
2022-08-10T03:34:32.801Z,62.32
2022-08-10T03:35:07.362Z,61.83
2022-08-10T03:35:39.014Z,61.57
2022-08-10T03:36:44.155Z,61.75
2022-08-10T03:37:02.630Z,61.70
2022-08-10T03:37:34.388Z,61.64
2022-08-10T03:38:06.224Z,61.39
2022-08-10T03:38:40.360Z,61.49
2022-08-10T03:39:13.740Z,61.29
2022-08-10T03:39:45.500Z,60.87
2022-08-10T03:40:17.262Z,61.17
2022-08-10T03:40:50.439Z,61.06
2022-08-10T03:41:47.789Z,60.78
2022-08-10T03:42:27.565Z,60.91
2022-08-10T03:43:01.809Z,60.64
2022-08-10T03:43:34.297Z,60.61
2022-08-10T03:44:07.952Z,60.82
2022-08-10T03:44:41.450Z,60.65
2022-08-10T03:45:13.566Z,61.24
2022-08-10T03:45:55.531Z,61.25
2022-08-10T03:46:29.506Z,60.70
2022-08-10T03:47:02.287Z,60.87
2022-08-10T03:47:37.487Z,60.88
2022-08-10T03:48:10.460Z,61.04
2022-08-10T03:48:48.563Z,61.16
2022-08-10T03:49:23.239Z,61.22
2022-08-10T03:49:56.150Z,61.20
2022-08-10T03:50:51.118Z,61.38
2022-08-10T03:51:23.025Z,61.75
2022-08-10T03:51:55.745Z,61.88
2022-08-10T03:52:28.940Z,61.86
2022-08-10T03:53:00.881Z,61.81
2022-08-10T03:54:02.856Z,61.69
2022-08-10T03:54:27.687Z,62.35
2022-08-10T03:54:59.970Z,62.19
2022-08-10T03:56:29.056Z,62.17
2022-08-10T03:56:30.586Z,61.80
2022-08-10T03:57:04.126Z,62.13
2022-08-10T03:57:35.739Z,62.33
2022-08-10T03:58:21.333Z,61.57
2022-08-10T03:58:53.434Z,61.78
2022-08-10T03:59:25.685Z,61.93
2022-08-10T03:59:57.586Z,61.71
2022-08-10T04:00:34.816Z,61.77
2022-08-10T04:01:07.817Z,61.59
2022-08-10T04:02:44.804Z,61.59
2022-08-10T04:02:45.115Z,61.48
2022-08-10T04:03:20.769Z,61.57
2022-08-10T04:03:52.404Z,61.75
2022-08-10T04:04:43.513Z,61.19
2022-08-10T04:05:15.990Z,61.23
2022-08-10T04:05:47.682Z,61.10
2022-08-10T04:06:19.450Z,60.98
2022-08-10T04:06:54.844Z,61.07
2022-08-10T04:07:28.238Z,61.29
2022-08-10T04:08:01.341Z,61.23
2022-08-10T04:08:33.071Z,61.70
2022-08-10T04:09:05.077Z,61.51
2022-08-10T04:09:54.304Z,61.63
2022-08-10T04:10:27.894Z,61.88
2022-08-10T04:11:00.553Z,61.93
2022-08-10T04:11:33.506Z,62.05
2022-08-10T04:12:06.196Z,62.25
2022-08-10T04:12:37.789Z,62.26
2022-08-10T04:13:09.390Z,62.01
2022-08-10T04:13:40.927Z,62.08
2022-08-10T04:14:38.115Z,61.83
2022-08-10T04:15:04.240Z,62.17
2022-08-10T04:15:35.794Z,61.78
2022-08-10T04:16:07.577Z,61.91
2022-08-10T04:16:39.315Z,62.02
2022-08-10T04:17:14.058Z,61.79
2022-08-10T04:18:03.038Z,61.95
2022-08-10T04:18:37.599Z,61.86
2022-08-10T04:19:09.822Z,61.75
2022-08-10T04:19:45.924Z,62.57
2022-08-10T04:20:35.278Z,61.87
2022-08-10T04:21:17.318Z,61.79
2022-08-10T04:22:03.121Z,61.58
2022-08-10T04:22:36.513Z,61.29
2022-08-10T04:23:12.286Z,62.00
2022-08-10T04:23:51.148Z,61.40
2022-08-10T04:24:29.837Z,61.43
2022-08-10T04:25:05.810Z,60.79
2022-08-10T04:25:39.579Z,60.68
2022-08-10T04:26:12.185Z,60.07
2022-08-10T04:26:43.910Z,60.00
2022-08-10T04:27:16.514Z,60.35
2022-08-10T04:27:49.682Z,59.87
2022-08-10T04:28:21.477Z,60.76
2022-08-10T04:28:53.687Z,59.50
2022-08-10T04:29:25.353Z,60.01
2022-08-10T04:29:57.995Z,59.85
2022-08-10T04:30:31.932Z,60.04
2022-08-10T04:31:04.770Z,59.72
2022-08-10T04:31:37.983Z,59.40
2022-08-10T04:32:17.239Z,59.39
2022-08-10T04:32:53.249Z,59.27
2022-08-10T04:33:26.369Z,59.12
2022-08-10T04:33:59.447Z,59.44
2022-08-10T04:34:44.293Z,59.34
2022-08-10T04:35:19.842Z,59.20
2022-08-10T04:35:52.806Z,59.70
2022-08-10T04:36:25.124Z,59.71
2022-08-10T04:36:59.900Z,59.19
2022-08-10T04:37:31.745Z,59.42
2022-08-10T04:38:04.348Z,59.25
2022-08-10T04:38:36.712Z,59.08
2022-08-10T04:39:09.090Z,59.03
2022-08-10T04:39:40.892Z,59.39
2022-08-10T04:40:28.775Z,58.59
2022-08-10T04:41:02.039Z,58.01
2022-08-10T04:41:34.113Z,57.96
2022-08-10T04:42:06.625Z,57.97
2022-08-10T04:42:38.595Z,57.96
2022-08-10T04:43:13.158Z,58.36
2022-08-10T04:43:46.083Z,58.82
2022-08-10T04:44:17.638Z,58.24
2022-08-10T04:44:50.952Z,58.50
2022-08-10T04:45:22.503Z,58.26
2022-08-10T04:46:55.935Z,58.39
2022-08-10T04:47:05.998Z,58.74
2022-08-10T04:48:00.574Z,58.86
2022-08-10T04:48:42.916Z,58.85
2022-08-10T04:49:56.101Z,58.17
2022-08-10T04:50:14.335Z,58.51
2022-08-10T04:50:48.909Z,58.00
2022-08-10T04:51:20.601Z,58.23
2022-08-10T04:51:52.166Z,58.79
2022-08-10T04:52:25.294Z,57.92
2022-08-10T04:52:57.202Z,57.68
2022-08-10T04:53:28.799Z,57.77
2022-08-10T04:54:05.147Z,57.53
2022-08-10T04:54:38.464Z,57.31
2022-08-10T04:55:10.809Z,57.47
2022-08-10T04:55:42.501Z,57.48
2022-08-10T04:56:14.284Z,58.07
2022-08-10T04:56:45.851Z,57.45
2022-08-10T04:57:17.398Z,56.73
2022-08-10T04:57:49.141Z,56.69
2022-08-10T04:58:20.727Z,56.72
2022-08-10T04:58:52.321Z,56.81
2022-08-10T04:59:24.489Z,57.09
2022-08-10T04:59:56.070Z,57.80
2022-08-10T05:00:27.644Z,57.55
2022-08-10T05:00:59.320Z,56.73
2022-08-10T05:02:21.623Z,57.05
2022-08-10T05:02:31.082Z,56.84
2022-08-10T05:03:03.560Z,56.37
2022-08-10T05:03:35.149Z,56.32
2022-08-10T05:04:33.793Z,56.18
2022-08-10T05:05:10.446Z,56.63
2022-08-10T05:05:42.526Z,57.44
2022-08-10T05:06:14.116Z,56.76
2022-08-10T05:06:45.675Z,56.71
2022-08-10T05:07:18.423Z,56.78
2022-08-10T05:07:54.094Z,56.67
2022-08-10T05:08:28.466Z,57.15
2022-08-10T05:09:00.388Z,57.21
2022-08-10T05:09:32.074Z,57.02
2022-08-10T05:10:07.392Z,57.20
2022-08-10T05:10:40.889Z,57.47
2022-08-10T05:11:12.429Z,57.52
2022-08-10T05:11:55.634Z,57.50
2022-08-10T05:12:27.754Z,56.71
2022-08-10T05:12:59.443Z,56.76
2022-08-10T05:13:31.068Z,56.96
2022-08-10T05:14:02.646Z,57.07
2022-08-10T05:14:34.770Z,56.55
2022-08-10T05:15:07.360Z,57.04
2022-08-10T05:15:41.260Z,57.19
2022-08-10T05:16:12.900Z,56.79
2022-08-10T05:17:03.218Z,55.67
2022-08-10T05:17:35.996Z,55.13
2022-08-10T05:18:09.369Z,54.92
2022-08-10T05:18:41.663Z,55.14
2022-08-10T05:19:13.220Z,56.13
2022-08-10T05:20:03.133Z,54.94
2022-08-10T05:20:36.672Z,55.12
2022-08-10T05:21:08.242Z,55.55
2022-08-10T05:22:03.956Z,54.74
2022-08-10T05:22:31.593Z,54.18
2022-08-10T05:23:03.260Z,53.93
2022-08-10T05:23:34.822Z,53.44
2022-08-10T05:24:06.751Z,53.35
2022-08-10T05:24:38.385Z,54.13
2022-08-10T05:25:20.002Z,54.02
2022-08-10T05:25:51.628Z,53.82
2022-08-10T05:26:23.185Z,52.98
2022-08-10T05:26:55.139Z,52.54
2022-08-10T05:27:33.880Z,52.59
2022-08-10T05:28:06.875Z,52.45
2022-08-10T05:28:38.668Z,52.43
2022-08-10T05:29:10.248Z,52.22
2022-08-10T05:29:41.802Z,52.46
2022-08-10T05:30:28.008Z,52.39
2022-08-10T05:31:00.794Z,51.92
2022-08-10T05:31:35.073Z,52.13
2022-08-10T05:32:06.769Z,51.91
2022-08-10T05:32:57.873Z,52.18
2022-08-10T05:33:31.448Z,52.47
2022-08-10T05:34:03.168Z,52.27
2022-08-10T05:34:35.115Z,52.17
2022-08-10T05:35:26.966Z,52.39
2022-08-10T05:35:59.831Z,53.09
2022-08-10T05:36:33.974Z,52.56
2022-08-10T05:38:34.990Z,51.99
2022-08-10T05:39:06.726Z,52.23
2022-08-10T05:39:39.415Z,51.28
2022-08-10T05:40:12.139Z,51.62
2022-08-10T05:40:46.554Z,51.56
2022-08-10T05:41:19.846Z,51.77
2022-08-10T05:41:56.211Z,51.58
2022-08-10T05:42:33.823Z,51.55
2022-08-10T05:43:05.904Z,51.78
2022-08-10T05:43:37.738Z,51.63
2022-08-10T05:44:12.351Z,52.05
2022-08-10T05:44:45.040Z,52.86
2022-08-10T05:45:30.299Z,51.24
2022-08-10T05:46:19.450Z,50.86
2022-08-10T05:46:52.546Z,51.06
2022-08-10T05:47:24.345Z,51.08
2022-08-10T05:48:53.868Z,50.98
2022-08-10T05:48:56.559Z,51.10
2022-08-10T05:49:31.636Z,50.90
2022-08-10T05:50:03.418Z,50.89
2022-08-10T05:50:42.149Z,51.17
2022-08-10T05:51:14.099Z,51.00
2022-08-10T05:51:45.961Z,51.16
2022-08-10T05:52:19.309Z,50.86
2022-08-10T05:52:51.011Z,50.57
2022-08-10T05:54:03.257Z,51.21
2022-08-10T05:54:58.489Z,50.83
2022-08-10T05:55:32.915Z,51.13
2022-08-10T05:56:07.622Z,50.67
2022-08-10T05:56:53.475Z,50.40
2022-08-10T05:57:30.169Z,50.19
2022-08-10T05:58:02.042Z,50.56
2022-08-10T05:58:37.821Z,50.32
2022-08-10T05:59:13.888Z,50.57
2022-08-10T06:00:11.101Z,50.41
2022-08-10T06:00:54.005Z,50.50
2022-08-10T06:01:28.085Z,50.85
2022-08-10T06:02:41.136Z,51.04
2022-08-10T06:03:01.870Z,50.57
2022-08-10T06:03:54.151Z,50.78
2022-08-10T06:04:30.926Z,49.97
2022-08-10T06:05:23.641Z,49.63
2022-08-10T06:05:58.930Z,50.54
2022-08-10T06:06:35.533Z,50.37
2022-08-10T06:07:08.901Z,49.63
2022-08-10T06:07:51.577Z,49.91
2022-08-10T06:08:28.768Z,49.62
2022-08-10T06:09:00.929Z,49.58
2022-08-10T06:09:35.808Z,49.22
2022-08-10T06:10:32.621Z,49.20
2022-08-10T06:12:27.479Z,49.16
2022-08-10T06:12:28.209Z,49.32
2022-08-10T06:13:21.446Z,48.91
2022-08-10T06:14:23.065Z,48.86
2022-08-10T06:15:05.810Z,49.04
2022-08-10T06:15:51.426Z,49.29
2022-08-10T06:16:26.741Z,49.08
2022-08-10T06:17:01.151Z,49.02
2022-08-10T06:17:32.725Z,48.86
2022-08-10T06:18:05.663Z,48.95
2022-08-10T06:18:40.065Z,48.54
2022-08-10T06:19:14.715Z,49.58
2022-08-10T06:19:47.525Z,48.89
2022-08-10T06:20:23.563Z,48.89
2022-08-10T06:21:00.631Z,48.67
2022-08-10T06:21:36.976Z,48.79
2022-08-10T06:22:13.527Z,48.26
2022-08-10T06:22:45.100Z,48.69
2022-08-10T06:23:18.005Z,48.04
2022-08-10T06:23:50.393Z,47.99
2022-08-10T06:24:25.323Z,48.21
2022-08-10T06:25:37.690Z,47.42
2022-08-10T06:26:10.502Z,47.57
2022-08-10T06:26:44.810Z,47.60
2022-08-10T06:27:16.983Z,47.64
2022-08-10T06:27:50.057Z,47.75
2022-08-10T06:28:23.117Z,47.54
2022-08-10T06:29:03.041Z,47.55
2022-08-10T06:29:40.419Z,47.22
2022-08-10T06:30:20.931Z,47.52
2022-08-10T06:30:54.624Z,48.33
2022-08-10T06:31:30.767Z,48.02
2022-08-10T06:32:25.547Z,47.70
2022-08-10T06:32:59.815Z,47.82
2022-08-10T06:33:34.679Z,47.91
2022-08-10T06:34:08.687Z,48.06
2022-08-10T06:34:43.604Z,48.34
2022-08-10T06:35:16.573Z,47.77
2022-08-10T06:35:53.387Z,47.28
2022-08-10T06:36:27.309Z,47.72
2022-08-10T06:37:08.049Z,48.11
2022-08-10T06:37:41.227Z,47.78
2022-08-10T06:38:15.297Z,47.99
2022-08-10T06:38:48.205Z,47.53
2022-08-10T06:39:33.665Z,47.64
2022-08-10T06:40:06.519Z,47.64
2022-08-10T06:40:43.262Z,47.64
2022-08-10T06:41:22.410Z,47.18
2022-08-10T06:42:22.225Z,46.81
2022-08-10T06:42:56.078Z,47.08
2022-08-10T06:43:29.652Z,47.32
2022-08-10T06:44:06.981Z,47.17
2022-08-10T06:44:47.116Z,47.21
2022-08-10T06:45:23.344Z,46.76
2022-08-10T06:46:06.849Z,47.01
2022-08-10T06:46:48.085Z,46.99
2022-08-10T06:47:24.072Z,47.10
2022-08-10T06:48:06.127Z,47.83
2022-08-10T06:48:54.545Z,46.95
2022-08-10T06:49:27.222Z,47.18
2022-08-10T06:50:04.950Z,47.39
2022-08-10T06:50:57.949Z,47.88
2022-08-10T06:51:33.598Z,47.92
2022-08-10T06:52:08.578Z,47.66
2022-08-10T06:52:46.661Z,47.37
2022-08-10T06:53:24.486Z,47.56
2022-08-10T06:54:22.195Z,47.78
2022-08-10T06:54:55.735Z,47.47
2022-08-10T06:55:55.455Z,47.17
2022-08-10T06:56:38.065Z,47.37
2022-08-10T06:57:20.873Z,47.17
2022-08-10T06:58:00.053Z,47.09
2022-08-10T06:58:54.721Z,47.32
2022-08-10T06:59:37.600Z,47.28
2022-08-10T07:00:12.039Z,47.12
2022-08-10T07:00:45.288Z,47.28
2022-08-10T07:01:21.642Z,47.30
2022-08-10T07:01:59.547Z,47.50
2022-08-10T07:02:55.296Z,47.90
2022-08-10T07:03:35.019Z,47.23
2022-08-10T07:04:11.490Z,47.59
2022-08-10T07:04:54.383Z,47.44
2022-08-10T07:05:28.159Z,47.24
2022-08-10T07:06:01.431Z,46.78
2022-08-10T07:06:36.210Z,46.63
2022-08-10T07:07:08.273Z,46.82
2022-08-10T07:07:43.597Z,46.90
2022-08-10T07:08:18.472Z,46.50
2022-08-10T07:08:52.213Z,46.34
2022-08-10T07:09:25.630Z,46.36
2022-08-10T07:10:01.716Z,46.50
2022-08-10T07:10:41.166Z,46.51
2022-08-10T07:11:20.662Z,46.74
2022-08-10T07:11:53.251Z,46.91
2022-08-10T07:12:25.821Z,46.87
2022-08-10T07:13:01.024Z,46.79
2022-08-10T07:14:16.246Z,46.30
2022-08-10T07:14:28.931Z,46.14
2022-08-10T07:15:02.341Z,46.12
2022-08-10T07:15:59.627Z,46.36
2022-08-10T07:16:28.992Z,46.35
2022-08-10T07:17:01.246Z,46.51
2022-08-10T07:17:38.656Z,46.17
2022-08-10T07:18:11.995Z,46.13
2022-08-10T07:18:46.101Z,46.13
2022-08-10T07:19:18.980Z,47.25
2022-08-10T07:19:54.384Z,47.00
2022-08-10T07:20:27.911Z,47.48
2022-08-10T07:21:02.104Z,46.21
2022-08-10T07:21:34.566Z,46.38
2022-08-10T07:23:50.753Z,46.46
2022-08-10T07:23:55.862Z,46.49
2022-08-10T07:24:01.250Z,46.02
2022-08-10T07:24:35.496Z,45.52
2022-08-10T07:25:08.818Z,45.12
2022-08-10T07:25:42.638Z,45.76
2022-08-10T07:26:16.757Z,45.42
2022-08-10T07:26:52.463Z,46.55
2022-08-10T07:27:26.050Z,45.85
2022-08-10T07:28:11.353Z,45.85
2022-08-10T07:28:47.952Z,46.79
2022-08-10T07:29:26.651Z,45.21
2022-08-10T07:30:13.795Z,45.85
2022-08-10T07:30:47.533Z,45.92
2022-08-10T07:31:56.509Z,45.66
2022-08-10T07:32:15.235Z,45.43
2022-08-10T07:32:49.634Z,44.97
2022-08-10T07:33:22.852Z,44.73
2022-08-10T07:33:55.265Z,45.27
2022-08-10T07:34:30.013Z,44.88
2022-08-10T07:35:02.824Z,45.24
2022-08-10T07:35:43.034Z,45.65
2022-08-10T07:36:15.589Z,45.18
2022-08-10T07:36:48.068Z,44.76
2022-08-10T07:37:23.032Z,45.00
2022-08-10T07:37:56.347Z,45.18
2022-08-10T07:38:31.769Z,44.84
2022-08-10T07:39:05.301Z,44.78
2022-08-10T07:40:03.679Z,45.49
2022-08-10T07:40:36.737Z,44.99
2022-08-10T07:41:09.625Z,44.94
2022-08-10T07:41:44.115Z,45.31
2022-08-10T07:42:18.580Z,45.93
2022-08-10T07:42:56.169Z,45.33
2022-08-10T07:43:34.911Z,45.31
2022-08-10T07:44:09.148Z,45.80
2022-08-10T07:44:42.470Z,44.60
2022-08-10T07:45:14.611Z,45.46
2022-08-10T07:45:48.928Z,45.12
2022-08-10T07:46:23.129Z,44.67
2022-08-10T07:46:58.033Z,44.42
2022-08-10T07:47:53.182Z,44.29
2022-08-10T07:48:29.696Z,44.29
2022-08-10T07:49:19.173Z,44.46
2022-08-10T07:49:52.498Z,44.41
2022-08-10T07:50:25.682Z,44.39
2022-08-10T07:51:01.925Z,44.45
2022-08-10T07:51:34.198Z,43.59
2022-08-10T07:52:10.679Z,43.81
2022-08-10T07:52:43.720Z,43.47
2022-08-10T07:53:23.912Z,43.34
2022-08-10T07:53:56.740Z,43.10
2022-08-10T07:54:31.588Z,43.56
2022-08-10T07:55:06.961Z,43.91
2022-08-10T07:56:04.466Z,43.44
2022-08-10T07:56:48.932Z,43.55
2022-08-10T07:57:35.801Z,43.62
2022-08-10T07:58:12.760Z,43.75
2022-08-10T07:58:51.924Z,42.97
2022-08-10T07:59:54.319Z,42.90
2022-08-10T08:00:29.901Z,42.88
2022-08-10T08:01:03.773Z,43.36
2022-08-10T08:01:40.938Z,42.47
2022-08-10T08:02:35.843Z,43.26
2022-08-10T08:03:10.990Z,42.79
2022-08-10T08:03:44.388Z,42.09
2022-08-10T08:04:42.001Z,41.85
2022-08-10T08:05:27.533Z,41.66
2022-08-10T08:06:11.979Z,42.50
2022-08-10T08:06:45.426Z,42.36
2022-08-10T08:07:21.419Z,42.62
2022-08-10T08:07:54.881Z,42.85
2022-08-10T08:08:29.412Z,42.58
2022-08-10T08:09:03.684Z,42.61
2022-08-10T08:09:37.127Z,42.08
2022-08-10T08:10:15.073Z,43.67
2022-08-10T08:10:48.156Z,42.02
2022-08-10T08:11:26.303Z,41.71
2022-08-10T08:11:59.484Z,41.80
2022-08-10T08:12:36.788Z,41.77